createdAt,value
2023-02-19T00:02:10.014Z,214833.00
2023-02-19T00:08:12.125Z,214841.00
2023-02-19T00:14:17.987Z,214841.00
2023-02-19T00:20:20.229Z,214833.00
2023-02-19T00:26:22.923Z,214808.00
2023-02-19T00:32:25.602Z,214640.00
2023-02-19T00:38:28.116Z,214545.00
2023-02-19T00:44:31.552Z,214432.00
2023-02-19T00:50:34.050Z,214384.00
2023-02-19T00:56:36.755Z,214307.00
2023-02-19T01:02:39.147Z,214197.00
2023-02-19T01:08:41.596Z,214141.00
2023-02-19T01:14:43.987Z,214078.00
2023-02-19T01:20:46.664Z,213983.00
2023-02-19T01:26:48.913Z,213928.00
2023-02-19T01:32:51.314Z,213900.00
2023-02-19T01:38:54.593Z,213811.00
2023-02-19T01:45:27.862Z,213797.00
2023-02-19T01:51:32.201Z,213770.00
2023-02-19T01:57:37.135Z,213720.00
2023-02-19T02:03:42.127Z,213714.00
2023-02-19T02:10:02.983Z,213700.00
2023-02-19T02:16:40.883Z,213653.00
2023-02-19T02:22:58.308Z,213617.00
2023-02-19T02:29:00.552Z,213617.00
2023-02-19T02:35:13.848Z,213681.00
2023-02-19T02:41:16.851Z,213694.00
2023-02-19T02:47:38.565Z,213720.00
2023-02-19T02:54:10.649Z,213734.00
2023-02-19T03:00:15.968Z,213770.00
2023-02-19T03:06:21.447Z,213756.00
2023-02-19T03:12:46.005Z,213764.00
2023-02-19T03:19:31.313Z,213811.00
2023-02-19T03:25:56.356Z,213872.00
2023-02-19T03:32:14.431Z,213928.00
2023-02-19T03:38:40.895Z,213950.00
2023-02-19T03:45:20.164Z,213934.00
2023-02-19T03:51:39.636Z,213908.00
2023-02-19T03:57:50.408Z,213922.00
2023-02-19T04:04:01.767Z,213934.00
2023-02-19T04:10:07.964Z,213894.00
2023-02-19T04:16:35.550Z,213811.00
2023-02-19T04:22:39.060Z,213789.00
2023-02-19T04:28:43.329Z,213811.00
2023-02-19T04:34:45.745Z,213824.00
2023-02-19T04:40:48.285Z,213688.00
2023-02-19T04:46:50.642Z,213583.00
2023-02-19T04:52:53.072Z,213501.00
2023-02-19T04:58:56.004Z,213495.00
2023-02-19T05:04:58.506Z,213495.00
2023-02-19T05:11:02.938Z,213501.00
2023-02-19T05:17:05.185Z,213547.00
2023-02-19T05:23:07.370Z,213577.00
2023-02-19T05:29:09.640Z,213577.00
2023-02-19T05:35:11.920Z,213645.00
2023-02-19T05:41:20.041Z,213776.00
2023-02-19T05:47:22.389Z,215044.00
2023-02-19T05:53:24.991Z,215072.00
2023-02-19T05:59:27.936Z,215112.00
2023-02-19T06:05:30.339Z,215182.00
2023-02-19T06:11:33.188Z,215700.00
2023-02-19T06:17:35.222Z,216100.00
2023-02-19T06:23:38.140Z,215833.00
2023-02-19T06:29:40.444Z,216070.00
2023-02-19T06:35:42.842Z,216359.00
2023-02-19T06:41:45.321Z,216501.00
2023-02-19T06:47:47.447Z,216942.00
2023-02-19T06:53:50.285Z,217903.00
2023-02-19T06:59:52.545Z,218045.00
2023-02-19T07:05:54.812Z,218431.00
2023-02-19T07:11:57.282Z,218939.00
2023-02-19T07:17:59.856Z,219436.00
2023-02-19T07:24:02.087Z,218824.00
2023-02-19T07:30:06.822Z,218124.00
2023-02-19T07:36:09.773Z,217889.00
2023-02-19T07:42:12.084Z,217973.00
2023-02-19T07:48:14.366Z,220035.00
2023-02-19T07:54:16.764Z,220261.00
2023-02-19T08:00:20.297Z,220376.00
2023-02-19T08:06:22.590Z,222308.00
2023-02-19T08:12:43.323Z,224887.00
2023-02-19T08:18:45.768Z,225392.00
2023-02-19T08:24:48.024Z,224339.00
2023-02-19T08:30:51.016Z,220479.00
2023-02-19T08:36:53.473Z,219711.00
2023-02-19T08:42:55.978Z,219550.00
2023-02-19T08:48:58.292Z,220368.00
2023-02-19T08:55:00.661Z,221411.00
2023-02-19T09:01:03.274Z,220384.00
2023-02-19T09:07:08.309Z,220210.00
2023-02-19T09:13:11.037Z,220841.00
2023-02-19T09:19:13.417Z,220683.00
2023-02-19T09:25:15.730Z,220302.00
2023-02-19T09:31:17.965Z,220517.00
2023-02-19T09:37:19.936Z,219741.00
2023-02-19T09:43:24.561Z,219646.00
2023-02-19T09:49:37.824Z,219833.00
2023-02-19T09:55:43.183Z,219949.00
2023-02-19T10:01:48.033Z,219905.00
2023-02-19T10:07:53.499Z,219817.00
2023-02-19T10:14:11.260Z,220057.00
2023-02-19T10:20:16.173Z,219891.00
2023-02-19T10:26:19.205Z,219839.00
2023-02-19T10:32:24.609Z,219905.00
2023-02-19T10:38:32.065Z,219869.00
2023-02-19T10:44:42.494Z,219956.00
2023-02-19T10:50:48.315Z,220310.00
2023-02-19T10:56:50.979Z,220392.00
2023-02-19T11:03:15.317Z,220324.00
2023-02-19T11:09:39.215Z,220384.00
2023-02-19T11:15:42.119Z,220294.00
2023-02-19T11:21:44.491Z,220218.00
2023-02-19T11:27:58.842Z,220035.00
2023-02-19T11:34:30.383Z,220253.00
2023-02-19T11:40:42.121Z,220623.00
2023-02-19T11:46:53.587Z,221609.00
2023-02-19T11:53:01.691Z,222087.00
2023-02-19T11:59:28.255Z,222308.00
2023-02-19T12:05:30.205Z,222729.00
2023-02-19T12:11:44.548Z,223301.00
2023-02-19T12:17:58.761Z,223695.00
2023-02-19T12:24:10.690Z,223606.00
2023-02-19T12:30:28.621Z,222402.00
2023-02-19T12:36:45.635Z,221478.00
2023-02-19T12:43:11.157Z,222308.00
2023-02-19T12:49:33.743Z,222567.00
2023-02-19T12:55:44.848Z,220536.00
2023-02-19T13:02:16.760Z,220049.00
2023-02-19T13:09:05.349Z,219875.00
2023-02-19T13:15:35.802Z,219564.00
2023-02-19T13:21:57.378Z,219752.00
2023-02-19T13:28:17.541Z,219499.00
2023-02-19T13:34:44.415Z,220398.00
2023-02-19T13:41:00.700Z,219564.00
2023-02-19T13:47:06.426Z,219070.00
2023-02-19T13:53:44.967Z,218860.00
2023-02-19T13:59:48.629Z,218729.00
2023-02-19T14:06:05.561Z,218704.00
2023-02-19T14:12:10.920Z,218623.00
2023-02-19T14:18:42.031Z,218501.00
2023-02-19T14:24:44.151Z,218423.00
2023-02-19T14:31:01.337Z,218310.00
2023-02-19T14:37:07.223Z,218266.00
2023-02-19T14:43:15.347Z,218244.00
2023-02-19T14:50:05.894Z,218222.00
2023-02-19T14:56:22.963Z,218152.00
2023-02-19T15:02:26.594Z,218138.00
2023-02-19T15:08:33.602Z,218072.00
2023-02-19T15:14:35.956Z,218051.00
2023-02-19T15:20:38.732Z,217987.00
2023-02-19T15:26:43.066Z,217965.00
2023-02-19T15:32:53.151Z,217937.00
2023-02-19T15:38:57.655Z,217924.00
2023-02-19T15:45:04.607Z,217903.00
2023-02-19T15:51:14.010Z,217965.00
2023-02-19T15:57:22.769Z,217965.00
2023-02-19T16:03:27.198Z,217935.00
2023-02-19T16:09:40.319Z,217897.00
2023-02-19T16:15:44.277Z,217875.00
2023-02-19T16:21:46.909Z,217845.00
2023-02-19T16:27:49.258Z,217845.00
2023-02-19T16:33:51.999Z,217803.00
2023-02-19T16:40:09.374Z,217801.00
2023-02-19T16:46:12.767Z,217760.00
2023-02-19T16:52:17.314Z,217702.00
2023-02-19T16:58:19.834Z,217610.00
2023-02-19T17:04:22.308Z,217590.00
2023-02-19T17:10:26.827Z,217560.00
2023-02-19T17:16:32.385Z,217510.00
2023-02-19T17:22:35.025Z,217504.00
2023-02-19T17:28:37.485Z,217475.00
2023-02-19T17:34:39.586Z,217461.00
2023-02-19T17:40:41.784Z,217425.00
2023-02-19T17:46:47.211Z,217376.00
2023-02-19T17:52:49.436Z,217362.00
2023-02-19T17:58:51.753Z,217362.00
2023-02-19T18:04:54.116Z,217311.00
2023-02-19T18:10:56.573Z,217221.00
2023-02-19T18:16:58.912Z,217176.00
2023-02-19T18:23:01.441Z,217129.00
2023-02-19T18:29:05.779Z,217044.00
2023-02-19T18:35:08.704Z,217000.00
2023-02-19T18:41:14.660Z,216986.00
2023-02-19T18:47:19.321Z,216964.00
2023-02-19T18:53:21.732Z,216964.00
2023-02-19T18:59:26.944Z,217000.00
2023-02-19T19:05:29.660Z,216986.00
2023-02-19T19:11:32.691Z,216978.00
2023-02-19T19:17:37.173Z,216908.00
2023-02-19T19:23:39.537Z,216824.00
2023-02-19T19:29:42.113Z,216753.00
2023-02-19T19:35:44.363Z,216747.00
2023-02-19T19:41:46.581Z,216703.00
2023-02-19T19:47:53.598Z,216661.00
2023-02-19T19:53:56.090Z,216626.00
2023-02-19T19:59:58.640Z,216543.00
2023-02-19T20:06:01.419Z,216499.00
2023-02-19T20:12:08.326Z,216485.00
2023-02-19T20:18:11.040Z,216406.00
2023-02-19T20:24:20.815Z,216326.00
2023-02-19T20:30:25.342Z,216232.00
2023-02-19T20:36:29.681Z,216302.00
2023-02-19T20:42:32.652Z,216304.00
2023-02-19T20:48:34.902Z,216224.00
2023-02-19T20:54:38.877Z,216191.00
2023-02-19T21:00:41.152Z,216139.00
2023-02-19T21:06:43.451Z,216163.00
2023-02-19T21:12:45.677Z,216125.00
2023-02-19T21:18:48.228Z,216064.00
2023-02-19T21:24:52.313Z,215995.00
2023-02-19T21:30:54.777Z,215943.00
2023-02-19T21:36:57.219Z,215894.00
2023-02-19T21:42:59.388Z,215777.00
2023-02-19T21:49:02.571Z,215756.00
2023-02-19T21:55:05.082Z,215714.00
2023-02-19T22:01:07.400Z,215678.00
2023-02-19T22:07:09.552Z,215642.00
2023-02-19T22:13:11.952Z,215538.00
2023-02-19T22:19:14.245Z,215441.00
2023-02-19T22:25:16.428Z,215449.00
2023-02-19T22:31:21.305Z,215433.00
2023-02-19T22:37:23.586Z,215369.00
2023-02-19T22:43:25.766Z,215261.00
2023-02-19T22:49:28.018Z,215188.00
2023-02-19T22:55:31.221Z,215154.00
2023-02-19T23:01:33.298Z,215120.00
2023-02-19T23:07:35.404Z,215058.00
2023-02-19T23:13:37.668Z,215008.00
2023-02-19T23:19:40.303Z,214903.00
2023-02-19T23:25:42.627Z,214827.00
2023-02-19T23:31:44.990Z,214711.00
2023-02-19T23:37:47.869Z,214695.00
2023-02-19T23:43:49.786Z,214648.00
2023-02-19T23:49:51.933Z,214634.00
2023-02-19T23:55:53.964Z,214681.00
